Aviation Digital Data Service (ADDS)

Output produced by METARs form (0827 UTC 20 April 2018)
found at http://aviationweather.gov/adds/metars/
 
KAGC 200707Z 2007/2106 28005KT P6SM SKC 
     FM201400 32012KT P6SM SKC 
     FM210200 32003KT P6SM SKC